sensor_id;sensor_type;location;lat;lon;timestamp;temperature;humidity
28520;DHT22;15732;48.534;20.382;2022-07-10T00:00:07;19.20;99.90
28520;DHT22;15732;48.534;20.382;2022-07-10T00:02:36;19.10;99.90
28520;DHT22;15732;48.534;20.382;2022-07-10T00:05:05;19.10;99.90
28520;DHT22;15732;48.534;20.382;2022-07-10T00:07:33;19.00;99.90
28520;DHT22;15732;48.534;20.382;2022-07-10T00:10:01;18.90;99.90
28520;DHT22;15732;48.534;20.382;2022-07-10T00:12:31;18.90;99.90
28520;DHT22;15732;48.534;20.382;2022-07-10T00:15:22;18.90;99.90
28520;DHT22;15732;48.534;20.382;2022-07-10T00:17:54;19.00;99.90
28520;DHT22;15732;48.534;20.382;2022-07-10T00:20:22;19.00;99.90
28520;DHT22;15732;48.534;20.382;2022-07-10T00:22:49;19.00;99.90
28520;DHT22;15732;48.534;20.382;2022-07-10T00:25:15;19.10;99.90
28520;DHT22;15732;48.534;20.382;2022-07-10T00:27:47;19.00;99.90
28520;DHT22;15732;48.534;20.382;2022-07-10T00:30:14;19.10;99.90
28520;DHT22;15732;48.534;20.382;2022-07-10T00:32:45;19.00;99.90
28520;DHT22;15732;48.534;20.382;2022-07-10T00:35:16;19.00;99.90
28520;DHT22;15732;48.534;20.382;2022-07-10T00:37:44;19.00;99.90
28520;DHT22;15732;48.534;20.382;2022-07-10T00:40:11;19.00;99.90
28520;DHT22;15732;48.534;20.382;2022-07-10T00:42:42;19.00;99.90
28520;DHT22;15732;48.534;20.382;2022-07-10T00:45:10;19.00;99.90
28520;DHT22;15732;48.534;20.382;2022-07-10T00:47:41;19.00;99.90
28520;DHT22;15732;48.534;20.382;2022-07-10T00:50:09;19.00;99.90
28520;DHT22;15732;48.534;20.382;2022-07-10T00:52:38;19.10;99.90
28520;DHT22;15732;48.534;20.382;2022-07-10T00:55:09;19.00;99.90
28520;DHT22;15732;48.534;20.382;2022-07-10T00:57:37;19.00;99.90
28520;DHT22;15732;48.534;20.382;2022-07-10T01:00:06;18.90;99.90
28520;DHT22;15732;48.534;20.382;2022-07-10T01:02:42;18.80;99.90
28520;DHT22;15732;48.534;20.382;2022-07-10T01:05:10;18.80;99.90
28520;DHT22;15732;48.534;20.382;2022-07-10T01:07:37;18.90;99.90
28520;DHT22;15732;48.534;20.382;2022-07-10T01:10:05;18.90;99.90
28520;DHT22;15732;48.534;20.382;2022-07-10T01:12:33;18.80;99.90
28520;DHT22;15732;48.534;20.382;2022-07-10T01:15:01;18.80;99.90
28520;DHT22;15732;48.534;20.382;2022-07-10T01:17:32;18.80;99.90
28520;DHT22;15732;48.534;20.382;2022-07-10T01:20:05;18.80;99.90
28520;DHT22;15732;48.534;20.382;2022-07-10T01:22:32;18.70;99.90
28520;DHT22;15732;48.534;20.382;2022-07-10T01:25:00;18.70;99.90
28520;DHT22;15732;48.534;20.382;2022-07-10T01:27:32;18.70;99.90
28520;DHT22;15732;48.534;20.382;2022-07-10T01:29:59;18.70;99.90
28520;DHT22;15732;48.534;20.382;2022-07-10T01:32:42;18.60;99.90
28520;DHT22;15732;48.534;20.382;2022-07-10T01:35:10;18.60;99.90
28520;DHT22;15732;48.534;20.382;2022-07-10T01:37:38;18.60;99.90
28520;DHT22;15732;48.534;20.382;2022-07-10T01:40:08;18.60;99.90
28520;DHT22;15732;48.534;20.382;2022-07-10T01:42:37;18.40;99.90
28520;DHT22;15732;48.534;20.382;2022-07-10T01:45:08;18.40;99.90
28520;DHT22;15732;48.534;20.382;2022-07-10T01:47:36;18.40;99.90
28520;DHT22;15732;48.534;20.382;2022-07-10T01:50:04;18.50;99.90
28520;DHT22;15732;48.534;20.382;2022-07-10T01:52:33;18.50;99.90
28520;DHT22;15732;48.534;20.382;2022-07-10T01:55:00;18.50;99.90
28520;DHT22;15732;48.534;20.382;2022-07-10T01:57:28;18.50;99.90
28520;DHT22;15732;48.534;20.382;2022-07-10T01:59:56;18.50;99.90
28520;DHT22;15732;48.534;20.382;2022-07-10T02:02:22;18.40;99.90
28520;DHT22;15732;48.534;20.382;2022-07-10T02:04:50;18.40;99.90
28520;DHT22;15732;48.534;20.382;2022-07-10T02:07:18;18.40;99.90
28520;DHT22;15732;48.534;20.382;2022-07-10T02:09:51;18.30;99.90
28520;DHT22;15732;48.534;20.382;2022-07-10T02:12:18;18.30;99.90
28520;DHT22;15732;48.534;20.382;2022-07-10T02:14:46;18.30;99.90
28520;DHT22;15732;48.534;20.382;2022-07-10T02:17:17;18.20;99.90
28520;DHT22;15732;48.534;20.382;2022-07-10T02:19:48;18.10;99.90
28520;DHT22;15732;48.534;20.382;2022-07-10T02:22:16;18.00;99.90
28520;DHT22;15732;48.534;20.382;2022-07-10T02:24:43;18.00;99.90
28520;DHT22;15732;48.534;20.382;2022-07-10T02:27:11;18.00;99.90
28520;DHT22;15732;48.534;20.382;2022-07-10T02:29:38;18.00;99.90
28520;DHT22;15732;48.534;20.382;2022-07-10T02:32:09;18.00;99.90
28520;DHT22;15732;48.534;20.382;2022-07-10T02:34:40;18.00;99.90
28520;DHT22;15732;48.534;20.382;2022-07-10T02:37:11;17.90;99.90
28520;DHT22;15732;48.534;20.382;2022-07-10T02:39:42;17.90;99.90
28520;DHT22;15732;48.534;20.382;2022-07-10T02:42:10;17.80;99.90
28520;DHT22;15732;48.534;20.382;2022-07-10T02:44:37;17.70;99.90
28520;DHT22;15732;48.534;20.382;2022-07-10T02:47:05;17.70;99.90
28520;DHT22;15732;48.534;20.382;2022-07-10T02:49:32;17.70;99.90
28520;DHT22;15732;48.534;20.382;2022-07-10T02:52:00;17.70;99.90
28520;DHT22;15732;48.534;20.382;2022-07-10T02:54:27;17.70;99.90
28520;DHT22;15732;48.534;20.382;2022-07-10T02:56:54;17.70;99.90
28520;DHT22;15732;48.534;20.382;2022-07-10T02:59:26;17.60;99.90
28520;DHT22;15732;48.534;20.382;2022-07-10T03:01:53;17.60;99.90
28520;DHT22;15732;48.534;20.382;2022-07-10T03:04:21;17.50;99.90
28520;DHT22;15732;48.534;20.382;2022-07-10T03:06:52;17.50;99.90
28520;DHT22;15732;48.534;20.382;2022-07-10T03:09:20;17.50;99.90
28520;DHT22;15732;48.534;20.382;2022-07-10T03:11:47;17.50;99.90
28520;DHT22;15732;48.534;20.382;2022-07-10T03:14:15;17.40;99.90
28520;DHT22;15732;48.534;20.382;2022-07-10T03:16:43;17.40;99.90
28520;DHT22;15732;48.534;20.382;2022-07-10T03:19:09;17.40;99.90
28520;DHT22;15732;48.534;20.382;2022-07-10T03:21:36;17.40;99.90
28520;DHT22;15732;48.534;20.382;2022-07-10T03:24:07;17.30;99.90
28520;DHT22;15732;48.534;20.382;2022-07-10T03:26:35;17.20;99.90
28520;DHT22;15732;48.534;20.382;2022-07-10T03:29:02;17.10;99.90
28520;DHT22;15732;48.534;20.382;2022-07-10T03:31:33;17.10;99.90
28520;DHT22;15732;48.534;20.382;2022-07-10T03:34:00;17.20;99.90
28520;DHT22;15732;48.534;20.382;2022-07-10T03:36:28;17.20;99.90
28520;DHT22;15732;48.534;20.382;2022-07-10T03:38:59;17.30;99.90
28520;DHT22;15732;48.534;20.382;2022-07-10T03:41:26;17.30;99.90
28520;DHT22;15732;48.534;20.382;2022-07-10T03:43:53;17.40;99.90
28520;DHT22;15732;48.534;20.382;2022-07-10T03:46:21;17.40;99.90
28520;DHT22;15732;48.534;20.382;2022-07-10T03:48:49;17.40;99.90
28520;DHT22;15732;48.534;20.382;2022-07-10T03:51:16;17.50;99.90
28520;DHT22;15732;48.534;20.382;2022-07-10T03:53:44;17.60;99.90
28520;DHT22;15732;48.534;20.382;2022-07-10T03:56:11;17.70;99.90
28520;DHT22;15732;48.534;20.382;2022-07-10T03:59:00;17.80;99.90
28520;DHT22;15732;48.534;20.382;2022-07-10T04:01:27;17.90;99.90
28520;DHT22;15732;48.534;20.382;2022-07-10T04:03:55;18.00;99.90
28520;DHT22;15732;48.534;20.382;2022-07-10T04:06:22;18.10;99.90
28520;DHT22;15732;48.534;20.382;2022-07-10T04:08:50;18.20;99.90
28520;DHT22;15732;48.534;20.382;2022-07-10T04:11:18;18.40;99.90
28520;DHT22;15732;48.534;20.382;2022-07-10T04:13:48;18.50;99.90
28520;DHT22;15732;48.534;20.382;2022-07-10T04:16:15;18.50;99.90
28520;DHT22;15732;48.534;20.382;2022-07-10T04:18:42;18.60;99.90
28520;DHT22;15732;48.534;20.382;2022-07-10T04:21:13;18.60;99.90
28520;DHT22;15732;48.534;20.382;2022-07-10T04:23:40;18.60;99.90
28520;DHT22;15732;48.534;20.382;2022-07-10T04:26:11;18.80;99.90
28520;DHT22;15732;48.534;20.382;2022-07-10T04:28:39;18.80;99.90
28520;DHT22;15732;48.534;20.382;2022-07-10T04:31:06;18.80;99.90
28520;DHT22;15732;48.534;20.382;2022-07-10T04:33:34;18.90;99.90
28520;DHT22;15732;48.534;20.382;2022-07-10T04:36:01;18.90;99.90
28520;DHT22;15732;48.534;20.382;2022-07-10T04:38:29;18.90;99.90
28520;DHT22;15732;48.534;20.382;2022-07-10T04:40:58;18.80;99.90
28520;DHT22;15732;48.534;20.382;2022-07-10T04:43:26;18.80;99.90
28520;DHT22;15732;48.534;20.382;2022-07-10T04:45:57;18.70;99.90
28520;DHT22;15732;48.534;20.382;2022-07-10T04:48:25;18.70;99.90
28520;DHT22;15732;48.534;20.382;2022-07-10T04:50:56;18.70;99.90
28520;DHT22;15732;48.534;20.382;2022-07-10T04:53:24;18.30;99.90
28520;DHT22;15732;48.534;20.382;2022-07-10T04:55:52;18.30;99.90
28520;DHT22;15732;48.534;20.382;2022-07-10T04:58:19;18.30;99.90
28520;DHT22;15732;48.534;20.382;2022-07-10T05:00:47;18.40;99.90
28520;DHT22;15732;48.534;20.382;2022-07-10T05:03:18;18.50;99.90
28520;DHT22;15732;48.534;20.382;2022-07-10T05:05:46;18.50;99.90
28520;DHT22;15732;48.534;20.382;2022-07-10T05:08:13;18.50;99.90
28520;DHT22;15732;48.534;20.382;2022-07-10T05:10:44;18.40;99.90
28520;DHT22;15732;48.534;20.382;2022-07-10T05:13:15;18.30;99.90
28520;DHT22;15732;48.534;20.382;2022-07-10T05:15:44;18.30;99.90
28520;DHT22;15732;48.534;20.382;2022-07-10T05:18:11;18.20;99.90
28520;DHT22;15732;48.534;20.382;2022-07-10T05:20:39;18.40;99.90
28520;DHT22;15732;48.534;20.382;2022-07-10T05:23:10;18.50;99.90
28520;DHT22;15732;48.534;20.382;2022-07-10T05:25:38;18.60;99.90
28520;DHT22;15732;48.534;20.382;2022-07-10T05:28:05;18.80;99.90
28520;DHT22;15732;48.534;20.382;2022-07-10T05:30:33;19.00;99.90
28520;DHT22;15732;48.534;20.382;2022-07-10T05:33:04;19.20;99.90
28520;DHT22;15732;48.534;20.382;2022-07-10T05:35:31;19.40;99.90
28520;DHT22;15732;48.534;20.382;2022-07-10T05:37:59;19.50;99.90
28520;DHT22;15732;48.534;20.382;2022-07-10T05:40:30;19.50;99.90
28520;DHT22;15732;48.534;20.382;2022-07-10T05:42:57;19.70;99.90
28520;DHT22;15732;48.534;20.382;2022-07-10T05:45:25;19.90;99.90
28520;DHT22;15732;48.534;20.382;2022-07-10T05:47:53;20.10;99.90
28520;DHT22;15732;48.534;20.382;2022-07-10T05:50:24;20.20;99.90
28520;DHT22;15732;48.534;20.382;2022-07-10T05:52:52;20.20;99.90
28520;DHT22;15732;48.534;20.382;2022-07-10T05:55:19;20.30;99.90
28520;DHT22;15732;48.534;20.382;2022-07-10T05:57:47;20.30;99.90
28520;DHT22;15732;48.534;20.382;2022-07-10T06:00:19;20.30;99.90
28520;DHT22;15732;48.534;20.382;2022-07-10T06:02:46;20.20;99.90
28520;DHT22;15732;48.534;20.382;2022-07-10T06:05:14;20.20;99.90
28520;DHT22;15732;48.534;20.382;2022-07-10T06:07:42;20.20;99.90
28520;DHT22;15732;48.534;20.382;2022-07-10T06:10:09;20.20;99.90
28520;DHT22;15732;48.534;20.382;2022-07-10T06:12:37;20.20;99.90
28520;DHT22;15732;48.534;20.382;2022-07-10T06:15:06;20.30;99.90
28520;DHT22;15732;48.534;20.382;2022-07-10T06:17:34;20.30;99.90
28520;DHT22;15732;48.534;20.382;2022-07-10T06:20:02;20.40;99.90
28520;DHT22;15732;48.534;20.382;2022-07-10T06:22:29;20.50;99.90
28520;DHT22;15732;48.534;20.382;2022-07-10T06:25:20;20.60;99.90
28520;DHT22;15732;48.534;20.382;2022-07-10T06:27:47;20.70;99.90
28520;DHT22;15732;48.534;20.382;2022-07-10T06:30:14;20.80;99.90
28520;DHT22;15732;48.534;20.382;2022-07-10T06:32:42;20.90;99.90
28520;DHT22;15732;48.534;20.382;2022-07-10T06:35:10;20.90;99.90
28520;DHT22;15732;48.534;20.382;2022-07-10T06:37:42;20.90;99.90
28520;DHT22;15732;48.534;20.382;2022-07-10T06:40:13;21.00;99.90
28520;DHT22;15732;48.534;20.382;2022-07-10T06:42:42;21.00;99.90
28520;DHT22;15732;48.534;20.382;2022-07-10T06:45:11;21.00;99.90
28520;DHT22;15732;48.534;20.382;2022-07-10T06:47:38;21.00;99.90
28520;DHT22;15732;48.534;20.382;2022-07-10T06:50:26;21.00;99.90
28520;DHT22;15732;48.534;20.382;2022-07-10T06:52:53;21.00;99.90
28520;DHT22;15732;48.534;20.382;2022-07-10T06:55:21;20.90;99.90
28520;DHT22;15732;48.534;20.382;2022-07-10T06:57:48;20.90;99.90
28520;DHT22;15732;48.534;20.382;2022-07-10T07:00:15;20.80;99.90
28520;DHT22;15732;48.534;20.382;2022-07-10T07:02:42;20.80;99.90
28520;DHT22;15732;48.534;20.382;2022-07-10T07:05:09;20.80;99.90
28520;DHT22;15732;48.534;20.382;2022-07-10T07:07:36;20.80;99.90
28520;DHT22;15732;48.534;20.382;2022-07-10T07:10:05;20.80;99.90
28520;DHT22;15732;48.534;20.382;2022-07-10T07:12:32;20.90;99.90
28520;DHT22;15732;48.534;20.382;2022-07-10T07:15:00;20.90;99.90
28520;DHT22;15732;48.534;20.382;2022-07-10T07:17:27;21.00;99.90
28520;DHT22;15732;48.534;20.382;2022-07-10T07:20:03;21.20;99.90
28520;DHT22;15732;48.534;20.382;2022-07-10T07:22:49;21.40;99.90
28520;DHT22;15732;48.534;20.382;2022-07-10T07:25:34;21.70;99.90
28520;DHT22;15732;48.534;20.382;2022-07-10T07:28:02;22.00;99.90
28520;DHT22;15732;48.534;20.382;2022-07-10T07:30:42;22.20;99.90
28520;DHT22;15732;48.534;20.382;2022-07-10T07:33:14;22.30;99.90
28520;DHT22;15732;48.534;20.382;2022-07-10T07:35:41;22.30;99.90
28520;DHT22;15732;48.534;20.382;2022-07-10T07:38:09;22.30;99.90
28520;DHT22;15732;48.534;20.382;2022-07-10T07:40:36;22.40;99.90
28520;DHT22;15732;48.534;20.382;2022-07-10T07:43:08;22.60;99.90
28520;DHT22;15732;48.534;20.382;2022-07-10T07:45:35;22.70;99.90
28520;DHT22;15732;48.534;20.382;2022-07-10T07:48:02;22.90;99.90
28520;DHT22;15732;48.534;20.382;2022-07-10T07:50:35;23.00;99.90
28520;DHT22;15732;48.534;20.382;2022-07-10T07:53:04;23.10;99.90
28520;DHT22;15732;48.534;20.382;2022-07-10T07:55:31;23.20;99.90
28520;DHT22;15732;48.534;20.382;2022-07-10T07:57:59;23.20;99.90
28520;DHT22;15732;48.534;20.382;2022-07-10T08:00:27;23.20;99.90
28520;DHT22;15732;48.534;20.382;2022-07-10T08:02:55;23.20;99.90
28520;DHT22;15732;48.534;20.382;2022-07-10T08:05:23;23.00;99.90
28520;DHT22;15732;48.534;20.382;2022-07-10T08:07:57;23.00;99.90
28520;DHT22;15732;48.534;20.382;2022-07-10T08:10:33;22.80;99.90
28520;DHT22;15732;48.534;20.382;2022-07-10T08:13:05;22.70;99.90
28520;DHT22;15732;48.534;20.382;2022-07-10T08:15:36;22.60;99.90
28520;DHT22;15732;48.534;20.382;2022-07-10T08:18:03;22.50;99.90
28520;DHT22;15732;48.534;20.382;2022-07-10T08:20:30;22.50;99.90
28520;DHT22;15732;48.534;20.382;2022-07-10T08:22:58;22.40;99.90
28520;DHT22;15732;48.534;20.382;2022-07-10T08:25:25;22.30;99.90
28520;DHT22;15732;48.534;20.382;2022-07-10T08:27:52;22.30;99.90
28520;DHT22;15732;48.534;20.382;2022-07-10T08:30:20;22.20;99.90
28520;DHT22;15732;48.534;20.382;2022-07-10T08:32:50;22.20;99.90
28520;DHT22;15732;48.534;20.382;2022-07-10T08:35:18;22.10;99.90
28520;DHT22;15732;48.534;20.382;2022-07-10T08:37:45;22.10;99.90
28520;DHT22;15732;48.534;20.382;2022-07-10T08:40:14;22.10;99.90
28520;DHT22;15732;48.534;20.382;2022-07-10T08:42:42;22.10;99.90
28520;DHT22;15732;48.534;20.382;2022-07-10T08:45:13;22.10;99.90
28520;DHT22;15732;48.534;20.382;2022-07-10T08:47:41;22.20;99.90
28520;DHT22;15732;48.534;20.382;2022-07-10T08:50:24;22.30;99.90
28520;DHT22;15732;48.534;20.382;2022-07-10T08:53:23;22.50;99.90
28520;DHT22;15732;48.534;20.382;2022-07-10T08:55:50;22.60;99.90
28520;DHT22;15732;48.534;20.382;2022-07-10T08:58:18;22.70;99.90
28520;DHT22;15732;48.534;20.382;2022-07-10T09:00:46;22.80;99.90
28520;DHT22;15732;48.534;20.382;2022-07-10T09:03:13;22.90;99.70
28520;DHT22;15732;48.534;20.382;2022-07-10T09:05:40;22.90;99.90
28520;DHT22;15732;48.534;20.382;2022-07-10T09:08:27;23.00;99.90
28520;DHT22;15732;48.534;20.382;2022-07-10T09:13:50;23.20;99.10
28520;DHT22;15732;48.534;20.382;2022-07-10T09:16:31;23.30;99.90
28520;DHT22;15732;48.534;20.382;2022-07-10T09:21:50;23.10;97.30
28520;DHT22;15732;48.534;20.382;2022-07-10T09:24:22;23.00;99.50
28520;DHT22;15732;48.534;20.382;2022-07-10T09:29:22;23.00;98.90
28520;DHT22;15732;48.534;20.382;2022-07-10T09:31:57;22.90;99.00
28520;DHT22;15732;48.534;20.382;2022-07-10T09:34:45;22.90;98.00
28520;DHT22;15732;48.534;20.382;2022-07-10T09:37:26;22.90;98.30
28520;DHT22;15732;48.534;20.382;2022-07-10T09:40:01;22.90;98.90
28520;DHT22;15732;48.534;20.382;2022-07-10T09:42:38;22.90;98.80
28520;DHT22;15732;48.534;20.382;2022-07-10T09:47:43;23.00;98.40
28520;DHT22;15732;48.534;20.382;2022-07-10T09:50:31;23.00;98.90
28520;DHT22;15732;48.534;20.382;2022-07-10T09:53:06;22.90;98.30
28520;DHT22;15732;48.534;20.382;2022-07-10T09:55:37;22.90;99.00
28520;DHT22;15732;48.534;20.382;2022-07-10T09:58:04;22.90;99.20
28520;DHT22;15732;48.534;20.382;2022-07-10T10:00:36;22.90;99.00
28520;DHT22;15732;48.534;20.382;2022-07-10T10:03:06;22.90;98.60
28520;DHT22;15732;48.534;20.382;2022-07-10T10:06:16;22.90;99.00
28520;DHT22;15732;48.534;20.382;2022-07-10T10:09:01;22.90;98.40
28520;DHT22;15732;48.534;20.382;2022-07-10T10:11:35;22.80;98.60
28520;DHT22;15732;48.534;20.382;2022-07-10T10:14:04;22.80;99.00
28520;DHT22;15732;48.534;20.382;2022-07-10T10:16:37;22.80;99.00
28520;DHT22;15732;48.534;20.382;2022-07-10T10:19:11;22.80;99.00
28520;DHT22;15732;48.534;20.382;2022-07-10T10:21:57;22.70;99.10
28520;DHT22;15732;48.534;20.382;2022-07-10T10:24:25;22.70;99.30
28520;DHT22;15732;48.534;20.382;2022-07-10T10:26:53;22.60;99.50
28520;DHT22;15732;48.534;20.382;2022-07-10T10:29:21;22.50;99.50
28520;DHT22;15732;48.534;20.382;2022-07-10T10:31:52;22.50;99.50
28520;DHT22;15732;48.534;20.382;2022-07-10T10:34:57;22.50;99.30
28520;DHT22;15732;48.534;20.382;2022-07-10T10:37:37;22.40;99.50
28520;DHT22;15732;48.534;20.382;2022-07-10T10:40:08;22.40;99.90
28520;DHT22;15732;48.534;20.382;2022-07-10T10:42:40;22.40;99.70
28520;DHT22;15732;48.534;20.382;2022-07-10T10:48:06;22.30;99.90
28520;DHT22;15732;48.534;20.382;2022-07-10T10:50:46;22.30;99.90
28520;DHT22;15732;48.534;20.382;2022-07-10T11:01:25;20.50;99.90
28520;DHT22;15732;48.534;20.382;2022-07-10T11:06:52;19.70;99.90
28520;DHT22;15732;48.534;20.382;2022-07-10T11:09:30;19.80;99.90
28520;DHT22;15732;48.534;20.382;2022-07-10T11:12:10;20.00;99.90
28520;DHT22;15732;48.534;20.382;2022-07-10T11:14:40;20.10;99.90
28520;DHT22;15732;48.534;20.382;2022-07-10T11:17:08;20.30;99.90
28520;DHT22;15732;48.534;20.382;2022-07-10T11:19:36;20.40;99.90
28520;DHT22;15732;48.534;20.382;2022-07-10T11:30:03;20.50;99.90
28520;DHT22;15732;48.534;20.382;2022-07-10T11:32:31;20.70;99.90
28520;DHT22;15732;48.534;20.382;2022-07-10T11:35:08;20.80;99.90
28520;DHT22;15732;48.534;20.382;2022-07-10T11:38:10;20.80;99.90
28520;DHT22;15732;48.534;20.382;2022-07-10T11:40:38;21.00;99.90
28520;DHT22;15732;48.534;20.382;2022-07-10T11:43:05;21.00;99.90
28520;DHT22;15732;48.534;20.382;2022-07-10T11:45:36;21.00;99.90
28520;DHT22;15732;48.534;20.382;2022-07-10T11:48:06;21.00;99.90
28520;DHT22;15732;48.534;20.382;2022-07-10T11:50:38;20.90;99.90
28520;DHT22;15732;48.534;20.382;2022-07-10T11:53:05;21.00;99.90
28520;DHT22;15732;48.534;20.382;2022-07-10T11:55:33;21.00;99.90
28520;DHT22;15732;48.534;20.382;2022-07-10T11:58:18;20.80;99.90
28520;DHT22;15732;48.534;20.382;2022-07-10T12:00:59;20.80;99.90
28520;DHT22;15732;48.534;20.382;2022-07-10T12:03:26;20.70;99.90
28520;DHT22;15732;48.534;20.382;2022-07-10T12:05:54;20.70;99.90
28520;DHT22;15732;48.534;20.382;2022-07-10T12:08:21;20.80;99.90
28520;DHT22;15732;48.534;20.382;2022-07-10T12:10:53;20.80;99.90
28520;DHT22;15732;48.534;20.382;2022-07-10T12:13:20;20.90;99.90
28520;DHT22;15732;48.534;20.382;2022-07-10T12:15:48;20.80;99.90
28520;DHT22;15732;48.534;20.382;2022-07-10T12:18:21;20.80;99.90
28520;DHT22;15732;48.534;20.382;2022-07-10T12:20:49;20.80;99.90
28520;DHT22;15732;48.534;20.382;2022-07-10T12:23:22;20.80;99.90
28520;DHT22;15732;48.534;20.382;2022-07-10T12:25:53;20.70;99.90
28520;DHT22;15732;48.534;20.382;2022-07-10T12:28:25;20.60;99.90
28520;DHT22;15732;48.534;20.382;2022-07-10T12:30:52;20.40;99.90
28520;DHT22;15732;48.534;20.382;2022-07-10T12:33:22;20.40;99.90
28520;DHT22;15732;48.534;20.382;2022-07-10T12:35:59;20.30;99.90
28520;DHT22;15732;48.534;20.382;2022-07-10T12:38:28;20.30;99.90
28520;DHT22;15732;48.534;20.382;2022-07-10T12:41:08;20.30;99.90
28520;DHT22;15732;48.534;20.382;2022-07-10T12:43:46;20.20;99.90
28520;DHT22;15732;48.534;20.382;2022-07-10T12:46:39;20.20;99.90
28520;DHT22;15732;48.534;20.382;2022-07-10T12:49:10;20.30;99.90
28520;DHT22;15732;48.534;20.382;2022-07-10T12:51:48;20.30;99.90
28520;DHT22;15732;48.534;20.382;2022-07-10T12:54:36;20.40;99.90
28520;DHT22;15732;48.534;20.382;2022-07-10T12:57:06;20.50;99.90
28520;DHT22;15732;48.534;20.382;2022-07-10T12:59:38;20.60;99.90
28520;DHT22;15732;48.534;20.382;2022-07-10T13:02:18;20.80;99.90
28520;DHT22;15732;48.534;20.382;2022-07-10T13:04:56;20.80;99.90
28520;DHT22;15732;48.534;20.382;2022-07-10T13:07:33;20.90;99.90
28520;DHT22;15732;48.534;20.382;2022-07-10T13:10:06;20.90;99.90
28520;DHT22;15732;48.534;20.382;2022-07-10T13:12:35;21.00;99.90
28520;DHT22;15732;48.534;20.382;2022-07-10T13:15:03;21.00;99.90
28520;DHT22;15732;48.534;20.382;2022-07-10T13:17:30;21.00;99.90
28520;DHT22;15732;48.534;20.382;2022-07-10T13:19:56;21.00;99.90
28520;DHT22;15732;48.534;20.382;2022-07-10T13:22:24;21.10;99.90
28520;DHT22;15732;48.534;20.382;2022-07-10T13:24:56;21.10;99.90
28520;DHT22;15732;48.534;20.382;2022-07-10T13:27:25;21.10;99.90
28520;DHT22;15732;48.534;20.382;2022-07-10T13:29:54;21.10;99.90
28520;DHT22;15732;48.534;20.382;2022-07-10T13:32:22;21.00;99.90
28520;DHT22;15732;48.534;20.382;2022-07-10T13:34:49;21.00;99.90
28520;DHT22;15732;48.534;20.382;2022-07-10T13:37:21;21.10;99.90
28520;DHT22;15732;48.534;20.382;2022-07-10T13:39:47;21.10;99.90
28520;DHT22;15732;48.534;20.382;2022-07-10T13:42:19;21.10;99.90
28520;DHT22;15732;48.534;20.382;2022-07-10T13:44:46;21.20;99.90
28520;DHT22;15732;48.534;20.382;2022-07-10T13:47:13;21.20;99.90
28520;DHT22;15732;48.534;20.382;2022-07-10T13:49:40;21.20;99.90
28520;DHT22;15732;48.534;20.382;2022-07-10T13:52:12;21.30;99.90
28520;DHT22;15732;48.534;20.382;2022-07-10T13:54:43;21.30;99.90
28520;DHT22;15732;48.534;20.382;2022-07-10T13:57:14;21.40;99.90
28520;DHT22;15732;48.534;20.382;2022-07-10T13:59:42;21.30;99.90
28520;DHT22;15732;48.534;20.382;2022-07-10T14:02:09;21.30;99.90
28520;DHT22;15732;48.534;20.382;2022-07-10T14:04:37;21.30;99.90
28520;DHT22;15732;48.534;20.382;2022-07-10T14:07:07;21.30;99.90
28520;DHT22;15732;48.534;20.382;2022-07-10T14:09:35;21.30;99.90
28520;DHT22;15732;48.534;20.382;2022-07-10T14:12:03;21.30;99.90
28520;DHT22;15732;48.534;20.382;2022-07-10T14:14:31;21.30;99.90
28520;DHT22;15732;48.534;20.382;2022-07-10T14:17:02;21.30;99.90
28520;DHT22;15732;48.534;20.382;2022-07-10T14:19:30;21.20;99.90
28520;DHT22;15732;48.534;20.382;2022-07-10T14:21:58;21.20;99.90
28520;DHT22;15732;48.534;20.382;2022-07-10T14:24:26;21.10;99.90
28520;DHT22;15732;48.534;20.382;2022-07-10T14:26:53;21.10;99.90
28520;DHT22;15732;48.534;20.382;2022-07-10T14:29:21;21.00;99.90
28520;DHT22;15732;48.534;20.382;2022-07-10T14:31:49;21.00;99.90
28520;DHT22;15732;48.534;20.382;2022-07-10T14:34:18;20.90;99.90
28520;DHT22;15732;48.534;20.382;2022-07-10T14:36:46;20.90;99.90
28520;DHT22;15732;48.534;20.382;2022-07-10T14:39:16;20.90;99.90
28520;DHT22;15732;48.534;20.382;2022-07-10T14:41:44;20.80;99.90
28520;DHT22;15732;48.534;20.382;2022-07-10T14:44:11;20.80;99.90
28520;DHT22;15732;48.534;20.382;2022-07-10T14:46:38;20.80;99.90
28520;DHT22;15732;48.534;20.382;2022-07-10T14:49:05;20.80;99.90
28520;DHT22;15732;48.534;20.382;2022-07-10T14:51:32;20.70;99.90
28520;DHT22;15732;48.534;20.382;2022-07-10T14:54:02;20.70;99.90
28520;DHT22;15732;48.534;20.382;2022-07-10T14:56:29;20.70;99.90
28520;DHT22;15732;48.534;20.382;2022-07-10T14:59:00;20.60;99.90
28520;DHT22;15732;48.534;20.382;2022-07-10T15:01:28;20.60;99.90
28520;DHT22;15732;48.534;20.382;2022-07-10T15:03:59;20.60;99.90
28520;DHT22;15732;48.534;20.382;2022-07-10T15:06:26;20.40;99.90
28520;DHT22;15732;48.534;20.382;2022-07-10T15:08:53;20.30;99.90
28520;DHT22;15732;48.534;20.382;2022-07-10T15:11:20;19.90;99.90
28520;DHT22;15732;48.534;20.382;2022-07-10T15:13:50;19.70;99.90
28520;DHT22;15732;48.534;20.382;2022-07-10T15:16:18;19.60;99.90
28520;DHT22;15732;48.534;20.382;2022-07-10T15:18:49;19.40;99.90
28520;DHT22;15732;48.534;20.382;2022-07-10T15:21:17;19.30;99.90
28520;DHT22;15732;48.534;20.382;2022-07-10T15:23:48;19.40;99.90
28520;DHT22;15732;48.534;20.382;2022-07-10T15:26:16;19.40;99.90
28520;DHT22;15732;48.534;20.382;2022-07-10T15:28:43;19.40;99.90
28520;DHT22;15732;48.534;20.382;2022-07-10T15:31:11;19.20;99.90
28520;DHT22;15732;48.534;20.382;2022-07-10T15:33:38;19.00;99.90
28520;DHT22;15732;48.534;20.382;2022-07-10T15:36:12;18.80;99.90
28520;DHT22;15732;48.534;20.382;2022-07-10T15:38:39;18.70;99.90
28520;DHT22;15732;48.534;20.382;2022-07-10T15:41:10;18.70;99.90
28520;DHT22;15732;48.534;20.382;2022-07-10T15:43:37;18.50;99.90
28520;DHT22;15732;48.534;20.382;2022-07-10T15:46:05;18.60;99.90
28520;DHT22;15732;48.534;20.382;2022-07-10T15:48:33;18.70;99.90
28520;DHT22;15732;48.534;20.382;2022-07-10T15:51:06;18.60;99.90
28520;DHT22;15732;48.534;20.382;2022-07-10T15:53:37;18.60;99.90
28520;DHT22;15732;48.534;20.382;2022-07-10T15:56:05;18.60;99.90
28520;DHT22;15732;48.534;20.382;2022-07-10T15:58:32;18.60;99.90
28520;DHT22;15732;48.534;20.382;2022-07-10T16:01:03;18.60;99.90
28520;DHT22;15732;48.534;20.382;2022-07-10T16:03:31;18.40;99.90
28520;DHT22;15732;48.534;20.382;2022-07-10T16:05:59;18.50;99.90